createdAt,value
2017-05-07T00:00:02.631Z,15.84
2017-05-07T00:02:30.058Z,15.82
2017-05-07T00:04:57.521Z,15.78
2017-05-07T00:07:25.053Z,15.75
2017-05-07T00:09:52.489Z,15.72
2017-05-07T00:12:19.945Z,15.71
2017-05-07T00:14:47.374Z,15.68
2017-05-07T00:17:14.797Z,15.64
2017-05-07T00:19:42.239Z,15.62
2017-05-07T00:22:09.740Z,15.59
2017-05-07T00:24:37.219Z,15.57
2017-05-07T00:27:04.657Z,15.56
2017-05-07T00:29:32.098Z,15.54
2017-05-07T00:31:59.533Z,15.53
2017-05-07T00:34:27.023Z,15.51
2017-05-07T00:36:54.453Z,15.50
2017-05-07T00:39:21.882Z,15.47
2017-05-07T00:41:49.337Z,15.46
2017-05-07T00:44:16.769Z,15.44
2017-05-07T00:46:44.204Z,15.44
2017-05-07T00:49:11.662Z,15.43
2017-05-07T00:51:39.098Z,15.43
2017-05-07T00:54:06.530Z,15.43
2017-05-07T00:56:33.993Z,15.41
2017-05-07T00:59:01.426Z,15.41
2017-05-07T01:01:28.874Z,15.39
2017-05-07T01:03:56.331Z,15.38
2017-05-07T01:06:23.774Z,15.37
2017-05-07T01:08:51.208Z,15.34
2017-05-07T01:11:18.699Z,15.33
2017-05-07T01:13:46.139Z,15.30
2017-05-07T01:16:13.581Z,15.29
2017-05-07T01:18:41.056Z,15.28
2017-05-07T01:21:08.491Z,15.26
2017-05-07T01:23:35.925Z,15.23
2017-05-07T01:26:03.378Z,15.23
2017-05-07T01:28:30.810Z,15.21
2017-05-07T01:30:58.250Z,15.19
2017-05-07T01:33:25.714Z,15.18
2017-05-07T01:35:53.150Z,15.17
2017-05-07T01:38:20.581Z,15.16
2017-05-07T01:40:53.089Z,15.15
2017-05-07T01:43:20.528Z,15.14
2017-05-07T01:45:47.965Z,15.13
2017-05-07T01:48:15.421Z,15.11
2017-05-07T01:50:42.854Z,15.10
2017-05-07T01:53:10.296Z,15.08
2017-05-07T01:55:37.743Z,15.06
2017-05-07T01:58:05.179Z,15.05
2017-05-07T02:00:32.609Z,15.04
2017-05-07T02:03:00.074Z,15.02
2017-05-07T02:05:27.515Z,15.00
2017-05-07T02:07:54.953Z,14.97
2017-05-07T02:10:22.402Z,14.97
2017-05-07T02:12:49.842Z,14.96
2017-05-07T02:15:17.276Z,14.94
2017-05-07T02:17:44.742Z,14.93
2017-05-07T02:20:12.185Z,14.94
2017-05-07T02:22:39.622Z,14.92
2017-05-07T02:25:07.079Z,14.91
2017-05-07T02:27:34.514Z,14.89
2017-05-07T02:30:01.945Z,14.87
2017-05-07T02:32:29.401Z,14.85
2017-05-07T02:34:56.836Z,14.84
2017-05-07T02:37:24.277Z,14.83
2017-05-07T02:39:51.734Z,14.83
2017-05-07T02:42:19.173Z,14.81
2017-05-07T02:44:46.615Z,14.80
2017-05-07T02:47:14.069Z,14.80
2017-05-07T02:49:41.501Z,14.81
2017-05-07T02:52:08.940Z,14.80
2017-05-07T02:54:36.400Z,14.79
2017-05-07T02:57:03.858Z,14.80
2017-05-07T02:59:31.294Z,14.78
2017-05-07T03:01:58.755Z,14.79
2017-05-07T03:04:26.194Z,14.78
2017-05-07T03:06:53.632Z,14.78
2017-05-07T03:09:21.086Z,14.76
2017-05-07T03:11:48.529Z,14.75
2017-05-07T03:14:15.981Z,14.76
2017-05-07T03:16:43.446Z,14.75
2017-05-07T03:19:10.886Z,14.74
2017-05-07T03:21:38.318Z,14.74
2017-05-07T03:24:05.770Z,14.74
2017-05-07T03:26:33.209Z,14.73
2017-05-07T03:29:00.641Z,14.72
2017-05-07T03:31:28.113Z,14.71
2017-05-07T03:33:55.574Z,14.69
2017-05-07T03:36:23.012Z,14.68
2017-05-07T03:38:50.462Z,14.67
2017-05-07T03:41:17.894Z,14.66
2017-05-07T03:43:45.345Z,14.64
2017-05-07T03:46:12.802Z,14.64
2017-05-07T03:48:40.236Z,14.63
2017-05-07T03:51:07.676Z,14.62
2017-05-07T03:53:35.122Z,14.62
2017-05-07T03:56:02.569Z,14.61
2017-05-07T03:58:30.007Z,14.61
2017-05-07T04:00:57.466Z,14.61
2017-05-07T04:03:24.906Z,14.61
2017-05-07T04:05:52.347Z,14.61
2017-05-07T04:08:19.796Z,14.61
2017-05-07T04:10:47.231Z,14.61
2017-05-07T04:13:14.670Z,14.61
2017-05-07T04:15:42.124Z,14.61
2017-05-07T04:18:09.557Z,14.60
2017-05-07T04:20:37.009Z,14.60
2017-05-07T04:23:04.461Z,14.59
2017-05-07T04:25:31.897Z,14.58
2017-05-07T04:27:59.331Z,14.58
2017-05-07T04:30:26.777Z,14.58
2017-05-07T04:32:54.210Z,14.58
2017-05-07T04:35:21.648Z,14.59
2017-05-07T04:37:49.116Z,14.60
2017-05-07T04:40:16.563Z,14.61
2017-05-07T04:42:43.994Z,14.62
2017-05-07T04:45:11.454Z,14.65
2017-05-07T04:47:38.889Z,14.65
2017-05-07T04:50:06.329Z,14.67
2017-05-07T04:52:33.797Z,14.69
2017-05-07T04:55:01.237Z,14.72
2017-05-07T04:57:28.667Z,14.75
2017-05-07T04:59:56.130Z,14.79
2017-05-07T05:02:23.569Z,14.82
2017-05-07T05:04:51.018Z,14.85
2017-05-07T05:07:18.481Z,14.89
2017-05-07T05:09:45.921Z,14.91
2017-05-07T05:12:13.354Z,14.94
2017-05-07T05:14:40.805Z,14.96
2017-05-07T05:17:08.246Z,15.01
2017-05-07T05:19:51.447Z,15.04
2017-05-07T05:22:19.522Z,15.08
2017-05-07T05:25:02.558Z,15.09
2017-05-07T05:27:45.405Z,15.10
2017-05-07T05:30:27.756Z,15.10
2017-05-07T05:32:55.194Z,15.11
2017-05-07T05:35:22.625Z,15.14
2017-05-07T05:37:50.081Z,15.14
2017-05-07T05:40:17.518Z,15.15
2017-05-07T05:42:44.949Z,15.16
2017-05-07T05:45:12.417Z,15.18
2017-05-07T05:47:39.867Z,15.19
2017-05-07T05:50:07.309Z,15.22
2017-05-07T05:52:34.770Z,15.23
2017-05-07T05:55:02.210Z,15.26
2017-05-07T05:57:29.656Z,15.27
2017-05-07T05:59:57.129Z,15.30
2017-05-07T06:02:24.580Z,15.33
2017-05-07T06:04:52.025Z,15.35
2017-05-07T06:07:19.477Z,15.36
2017-05-07T06:09:46.938Z,15.38
2017-05-07T06:12:14.375Z,15.39
2017-05-07T06:14:41.831Z,15.41
2017-05-07T06:17:09.266Z,15.42
2017-05-07T06:19:36.706Z,15.44
2017-05-07T06:22:04.162Z,15.47
2017-05-07T06:24:31.598Z,15.50
2017-05-07T06:26:59.034Z,15.53
2017-05-07T06:29:26.506Z,15.57
2017-05-07T06:31:53.942Z,15.59
2017-05-07T06:34:21.370Z,15.61
2017-05-07T06:36:48.838Z,15.64
2017-05-07T06:39:16.281Z,15.67
2017-05-07T06:41:43.717Z,15.69
2017-05-07T06:44:11.177Z,15.71
2017-05-07T06:46:38.615Z,15.73
2017-05-07T06:49:06.054Z,15.74
2017-05-07T06:51:33.506Z,15.77
2017-05-07T06:54:00.945Z,15.79
2017-05-07T06:56:28.374Z,15.80
2017-05-07T06:58:55.825Z,15.82
2017-05-07T07:01:23.258Z,15.84
2017-05-07T07:03:50.698Z,15.86
2017-05-07T07:06:18.151Z,15.87
2017-05-07T07:08:45.595Z,15.89
2017-05-07T07:11:13.034Z,15.89
2017-05-07T07:13:40.494Z,15.91
2017-05-07T07:16:07.929Z,15.93
2017-05-07T07:18:35.380Z,15.95
2017-05-07T07:21:02.833Z,15.98
2017-05-07T07:23:30.288Z,16.00
2017-05-07T07:25:57.722Z,16.02
2017-05-07T07:28:25.203Z,16.02
2017-05-07T07:30:52.638Z,16.03
2017-05-07T07:33:20.078Z,16.02
2017-05-07T07:35:47.534Z,16.02
2017-05-07T07:38:14.978Z,16.01
2017-05-07T07:40:42.426Z,16.00
2017-05-07T07:43:09.890Z,15.99
2017-05-07T07:45:37.334Z,15.98
2017-05-07T07:48:04.773Z,15.96
2017-05-07T07:50:32.242Z,15.96
2017-05-07T07:52:59.687Z,15.95
2017-05-07T07:55:27.139Z,15.96
2017-05-07T07:57:54.601Z,15.96
2017-05-07T08:00:22.039Z,15.96
2017-05-07T08:02:49.475Z,15.97
2017-05-07T08:05:16.941Z,15.98
2017-05-07T08:07:44.379Z,15.98
2017-05-07T08:10:11.828Z,15.97
2017-05-07T08:12:39.441Z,15.98
2017-05-07T08:15:06.878Z,15.98
2017-05-07T08:17:34.313Z,15.99
2017-05-07T08:20:01.778Z,16.00
2017-05-07T08:22:29.214Z,16.01
2017-05-07T08:24:57.642Z,16.04
2017-05-07T08:27:25.113Z,16.06
2017-05-07T08:29:52.549Z,16.09
2017-05-07T08:32:23.099Z,16.11
2017-05-07T08:34:50.554Z,16.14
2017-05-07T08:37:18.016Z,16.17
2017-05-07T08:39:45.449Z,16.19
2017-05-07T08:42:12.927Z,16.24
2017-05-07T08:44:40.383Z,16.26
2017-05-07T08:47:07.854Z,16.28
2017-05-07T08:49:35.305Z,16.29
2017-05-07T08:52:02.751Z,16.30
2017-05-07T08:54:30.208Z,16.30
2017-05-07T08:56:57.677Z,16.33
2017-05-07T08:59:25.119Z,16.34
2017-05-07T09:01:52.572Z,16.36
2017-05-07T09:04:20.045Z,16.37
2017-05-07T09:06:47.485Z,16.39
2017-05-07T09:09:14.926Z,16.40
2017-05-07T09:15:00.521Z,16.44
2017-05-07T09:17:49.622Z,16.47
2017-05-07T09:20:17.061Z,16.51
2017-05-07T09:22:44.494Z,16.54
2017-05-07T09:25:11.958Z,16.58
2017-05-07T09:27:39.409Z,16.62
2017-05-07T09:30:06.854Z,16.65
2017-05-07T09:32:34.310Z,16.69
2017-05-07T09:35:01.755Z,16.71
2017-05-07T09:37:29.194Z,16.73
2017-05-07T09:40:00.323Z,16.75
2017-05-07T09:42:27.781Z,16.76
2017-05-07T09:44:56.166Z,16.77
2017-05-07T09:47:23.612Z,16.77
2017-05-07T09:49:57.215Z,16.77
2017-05-07T09:52:30.155Z,16.77
2017-05-07T09:54:57.627Z,16.79
2017-05-07T09:57:25.070Z,16.82
2017-05-07T09:59:52.511Z,16.84
2017-05-07T10:02:20.057Z,16.88
2017-05-07T10:04:47.606Z,16.90
2017-05-07T10:07:15.051Z,16.92
2017-05-07T10:09:42.503Z,16.94
2017-05-07T10:12:10.027Z,16.96
2017-05-07T10:14:37.497Z,16.98
2017-05-07T10:17:04.962Z,17.02
2017-05-07T10:19:32.461Z,17.05
2017-05-07T10:22:04.049Z,17.09
2017-05-07T10:24:31.495Z,17.14
2017-05-07T10:26:58.938Z,17.18
2017-05-07T10:29:26.374Z,17.22
2017-05-07T10:31:53.858Z,17.25
2017-05-07T10:34:21.317Z,17.27
2017-05-07T10:36:48.753Z,17.29
2017-05-07T10:39:16.205Z,17.34
2017-05-07T10:41:43.685Z,17.38
2017-05-07T10:44:12.136Z,17.42
2017-05-07T10:46:39.574Z,17.44
2017-05-07T10:49:07.013Z,17.46
2017-05-07T10:51:34.440Z,17.48
2017-05-07T10:54:01.881Z,17.49
2017-05-07T10:56:29.346Z,17.49
2017-05-07T10:58:56.770Z,17.50
2017-05-07T11:01:24.198Z,17.52
2017-05-07T11:03:51.645Z,17.55
2017-05-07T11:06:19.082Z,17.57
2017-05-07T11:08:46.505Z,17.58
2017-05-07T11:11:13.953Z,17.60
2017-05-07T11:13:41.375Z,17.63
2017-05-07T11:16:08.801Z,17.65
2017-05-07T11:18:36.243Z,17.69
2017-05-07T11:21:03.662Z,17.72
2017-05-07T11:23:31.093Z,17.75
2017-05-07T11:25:58.529Z,17.77
2017-05-07T11:28:25.958Z,17.79
2017-05-07T11:30:53.378Z,17.83
2017-05-07T11:33:20.823Z,17.85
2017-05-07T11:35:48.262Z,17.88
2017-05-07T11:38:15.680Z,17.88
2017-05-07T11:40:43.129Z,17.89
2017-05-07T11:43:10.546Z,17.91
2017-05-07T11:45:37.970Z,17.91
2017-05-07T11:48:05.454Z,17.92
2017-05-07T11:50:32.865Z,17.94
2017-05-07T11:53:00.281Z,17.95
2017-05-07T11:55:27.721Z,17.95
2017-05-07T11:57:55.132Z,17.94
2017-05-07T12:00:22.562Z,17.94
2017-05-07T12:02:50.990Z,17.92
2017-05-07T12:05:18.418Z,17.89
2017-05-07T12:07:45.833Z,17.86
2017-05-07T12:10:13.275Z,17.82
2017-05-07T12:12:40.704Z,17.77
2017-05-07T12:15:08.141Z,17.73
2017-05-07T12:17:39.529Z,17.72
2017-05-07T12:20:06.963Z,17.71
2017-05-07T12:22:34.381Z,17.71
2017-05-07T12:25:01.835Z,17.74
2017-05-07T12:27:29.257Z,17.74
2017-05-07T12:29:56.690Z,17.78
2017-05-07T12:32:24.128Z,17.85
2017-05-07T12:34:51.550Z,17.93
2017-05-07T12:37:18.978Z,18.00
2017-05-07T12:39:48.389Z,18.09
2017-05-07T12:42:15.826Z,18.18
2017-05-07T12:44:43.245Z,18.25
2017-05-07T12:47:10.680Z,18.32
2017-05-07T12:49:38.098Z,18.40
2017-05-07T12:52:05.528Z,18.45
2017-05-07T12:54:32.974Z,18.50
2017-05-07T12:57:00.394Z,18.55
2017-05-07T12:59:27.852Z,18.58
2017-05-07T13:01:55.306Z,18.61
2017-05-07T13:04:22.733Z,18.66
2017-05-07T13:06:50.880Z,18.68
2017-05-07T13:09:18.326Z,18.73
2017-05-07T13:11:45.749Z,18.77
2017-05-07T13:14:13.178Z,18.82
2017-05-07T13:16:40.635Z,18.84
2017-05-07T13:19:08.069Z,18.88
2017-05-07T13:21:35.498Z,18.91
2017-05-07T13:24:02.945Z,18.92
2017-05-07T13:26:30.375Z,18.96
2017-05-07T13:28:57.809Z,18.98
2017-05-07T13:31:25.262Z,19.01
2017-05-07T13:33:52.697Z,19.04
2017-05-07T13:36:20.229Z,19.07
2017-05-07T13:38:47.721Z,19.10
2017-05-07T13:41:15.228Z,19.13
2017-05-07T13:43:42.738Z,19.16
2017-05-07T13:46:10.205Z,19.17
2017-05-07T13:48:37.650Z,19.16
2017-05-07T13:51:05.165Z,19.14
2017-05-07T13:53:32.618Z,19.14
2017-05-07T13:56:00.041Z,19.14
2017-05-07T13:58:28.441Z,19.16
2017-05-07T14:00:55.890Z,19.18
2017-05-07T14:03:23.322Z,19.18
2017-05-07T14:05:50.754Z,19.18
2017-05-07T14:08:18.211Z,19.20
2017-05-07T14:10:47.583Z,19.21
2017-05-07T14:13:15.006Z,19.23
2017-05-07T14:15:43.012Z,19.27
2017-05-07T14:18:10.450Z,19.27
2017-05-07T14:20:37.882Z,19.25
2017-05-07T14:23:06.334Z,19.24
2017-05-07T14:25:34.297Z,19.22
2017-05-07T14:28:01.731Z,19.21
2017-05-07T14:30:29.187Z,19.20
2017-05-07T14:32:56.626Z,19.16
2017-05-07T14:35:24.058Z,19.11
2017-05-07T14:37:53.454Z,19.07
2017-05-07T14:40:20.882Z,19.03
2017-05-07T14:42:48.309Z,19.00
2017-05-07T14:45:15.775Z,18.97
2017-05-07T14:47:43.202Z,18.90
2017-05-07T14:50:17.445Z,18.85
2017-05-07T14:52:44.874Z,18.76
2017-05-07T14:55:12.309Z,18.69
2017-05-07T14:57:39.765Z,18.64
2017-05-07T15:00:07.192Z,18.59
2017-05-07T15:02:34.646Z,18.55
2017-05-07T15:05:02.102Z,18.48
2017-05-07T15:07:29.549Z,18.44
2017-05-07T15:09:57.021Z,18.39
2017-05-07T15:12:25.410Z,18.34
2017-05-07T15:14:52.839Z,18.29
2017-05-07T15:17:20.849Z,18.23
2017-05-07T15:19:48.294Z,18.19
2017-05-07T15:22:15.765Z,18.13
2017-05-07T15:24:43.207Z,18.09
2017-05-07T15:27:10.678Z,18.03
2017-05-07T15:29:38.131Z,17.99
2017-05-07T15:32:13.638Z,17.96
2017-05-07T15:34:41.091Z,17.94
2017-05-07T15:37:08.530Z,17.92
2017-05-07T15:39:35.990Z,17.90
2017-05-07T15:42:03.423Z,17.89
2017-05-07T15:44:30.850Z,17.86
2017-05-07T15:46:58.305Z,17.84
2017-05-07T15:49:25.737Z,17.82
2017-05-07T15:51:53.182Z,17.80
2017-05-07T15:54:20.677Z,17.77
2017-05-07T15:56:48.122Z,17.74
2017-05-07T15:59:21.527Z,17.72
2017-05-07T16:01:50.921Z,17.67
2017-05-07T16:04:18.374Z,17.62
2017-05-07T16:06:45.832Z,17.58
2017-05-07T16:09:13.265Z,17.56
2017-05-07T16:11:40.718Z,17.53
2017-05-07T16:14:08.172Z,17.50
2017-05-07T16:16:47.707Z,17.46
2017-05-07T16:19:30.046Z,17.43
2017-05-07T16:25:30.770Z,17.34
2017-05-07T16:28:01.125Z,17.29
2017-05-07T16:30:29.277Z,17.23
2017-05-07T16:33:18.257Z,17.17
2017-05-07T16:35:45.694Z,17.12
2017-05-07T16:38:13.141Z,17.08
2017-05-07T16:40:40.605Z,17.05
2017-05-07T16:43:08.058Z,17.01
2017-05-07T16:45:35.486Z,16.98
2017-05-07T16:48:02.953Z,16.95
2017-05-07T16:50:30.381Z,16.93
2017-05-07T16:52:57.831Z,16.90
2017-05-07T16:55:25.287Z,16.86
2017-05-07T16:57:52.721Z,16.82
2017-05-07T17:00:20.176Z,16.78
2017-05-07T17:02:53.062Z,16.74
2017-05-07T17:05:22.512Z,16.70
2017-05-07T17:07:49.958Z,16.66
2017-05-07T17:10:17.430Z,16.62
2017-05-07T17:12:44.882Z,16.60
2017-05-07T17:15:12.330Z,16.57
2017-05-07T17:17:39.812Z,16.54
2017-05-07T17:20:07.258Z,16.51
2017-05-07T17:22:34.710Z,16.49
2017-05-07T17:25:02.187Z,16.47
2017-05-07T17:27:29.626Z,16.44
2017-05-07T17:29:57.061Z,16.41
2017-05-07T17:32:24.527Z,16.37
2017-05-07T17:34:52.093Z,16.34
2017-05-07T17:37:19.530Z,16.30
2017-05-07T17:39:46.987Z,16.27
2017-05-07T17:42:14.422Z,16.24
2017-05-07T17:44:41.859Z,16.21
2017-05-07T17:47:09.325Z,16.17
2017-05-07T17:49:36.773Z,16.14
2017-05-07T17:52:04.211Z,16.11
2017-05-07T17:54:31.687Z,16.07
2017-05-07T17:56:59.135Z,16.02
2017-05-07T17:59:26.582Z,15.99
2017-05-07T18:01:54.034Z,15.96
2017-05-07T18:04:21.501Z,15.92
2017-05-07T18:06:48.959Z,15.89
2017-05-07T18:09:16.425Z,15.85
2017-05-07T18:11:43.872Z,15.82
2017-05-07T18:14:11.329Z,15.79
2017-05-07T18:16:38.794Z,15.77
2017-05-07T18:19:06.229Z,15.74
2017-05-07T18:21:33.711Z,15.72
2017-05-07T18:24:01.166Z,15.70
2017-05-07T18:26:28.604Z,15.67
2017-05-07T18:28:56.051Z,15.65
2017-05-07T18:31:23.509Z,15.63
2017-05-07T18:33:50.955Z,15.61
2017-05-07T18:36:18.393Z,15.59
2017-05-07T18:38:45.869Z,15.56
2017-05-07T18:41:13.314Z,15.54
2017-05-07T18:43:40.745Z,15.53
2017-05-07T18:46:08.201Z,15.52
2017-05-07T18:48:35.634Z,15.50
2017-05-07T18:51:03.078Z,15.50
2017-05-07T18:53:30.538Z,15.48
2017-05-07T18:55:57.973Z,15.47
2017-05-07T18:58:25.405Z,15.45
2017-05-07T19:00:52.882Z,15.44
2017-05-07T19:03:20.326Z,15.41
2017-05-07T19:05:47.762Z,15.40
2017-05-07T19:08:15.217Z,15.39
2017-05-07T19:10:42.650Z,15.36
2017-05-07T19:13:10.088Z,15.35
2017-05-07T19:15:37.549Z,15.33
2017-05-07T19:18:04.997Z,15.32
2017-05-07T19:20:32.437Z,15.31
2017-05-07T19:22:59.906Z,15.29
2017-05-07T19:25:27.347Z,15.27
2017-05-07T19:27:54.786Z,15.26
2017-05-07T19:30:22.244Z,15.24
2017-05-07T19:32:49.686Z,15.23
2017-05-07T19:35:17.118Z,15.21
2017-05-07T19:37:44.593Z,15.20
2017-05-07T19:40:12.029Z,15.18
2017-05-07T19:42:39.465Z,15.17
2017-05-07T19:45:06.927Z,15.15
2017-05-07T19:47:34.363Z,15.13
2017-05-07T19:50:01.811Z,15.12
2017-05-07T19:52:29.274Z,15.11
2017-05-07T19:54:56.735Z,15.10
2017-05-07T19:57:24.170Z,15.09
2017-05-07T19:59:51.629Z,15.07
2017-05-07T20:02:19.070Z,15.06
2017-05-07T20:04:46.506Z,15.04
2017-05-07T20:07:13.953Z,15.03
2017-05-07T20:09:41.393Z,15.02
2017-05-07T20:12:09.779Z,15.00
2017-05-07T20:14:37.234Z,14.98
2017-05-07T20:17:04.686Z,14.98
2017-05-07T20:19:32.118Z,14.96
2017-05-07T20:21:59.577Z,14.95
2017-05-07T20:24:27.017Z,14.93
2017-05-07T20:26:54.461Z,14.91
2017-05-07T20:29:21.926Z,14.90
2017-05-07T20:31:49.359Z,14.90
2017-05-07T20:34:16.821Z,14.88
2017-05-07T20:36:44.285Z,14.86
2017-05-07T20:39:11.718Z,14.84
2017-05-07T20:41:39.153Z,14.83
2017-05-07T20:44:06.609Z,14.82
2017-05-07T20:46:34.045Z,14.80
2017-05-07T20:49:01.481Z,14.80
2017-05-07T20:51:28.938Z,14.79
2017-05-07T20:53:56.374Z,14.77
2017-05-07T20:56:33.930Z,14.76
2017-05-07T20:59:01.434Z,14.75
2017-05-07T21:01:28.873Z,14.74
2017-05-07T21:03:56.335Z,14.74
2017-05-07T21:06:23.773Z,14.72
2017-05-07T21:08:51.201Z,14.72
2017-05-07T21:11:18.646Z,14.71
2017-05-07T21:13:46.082Z,14.71
2017-05-07T21:16:13.521Z,14.70
2017-05-07T21:18:40.998Z,14.69
2017-05-07T21:21:08.434Z,14.68
2017-05-07T21:23:35.878Z,14.68
2017-05-07T21:26:03.335Z,14.68
2017-05-07T21:28:30.766Z,14.68
2017-05-07T21:30:58.207Z,14.66
2017-05-07T21:33:25.678Z,14.65
2017-05-07T21:35:53.110Z,14.64
2017-05-07T21:38:20.537Z,14.63
2017-05-07T21:40:49.937Z,14.63
2017-05-07T21:43:17.374Z,14.61
2017-05-07T21:45:46.789Z,14.61
2017-05-07T21:48:14.249Z,14.60
2017-05-07T21:50:41.706Z,14.59
2017-05-07T21:53:11.134Z,14.58
2017-05-07T21:55:38.602Z,14.57
2017-05-07T21:58:06.030Z,14.56
2017-05-07T22:00:33.462Z,14.55
2017-05-07T22:03:00.922Z,14.53
2017-05-07T22:05:28.362Z,14.52
2017-05-07T22:07:55.794Z,14.51
2017-05-07T22:10:23.241Z,14.49
2017-05-07T22:12:50.686Z,14.48
2017-05-07T22:15:18.118Z,14.46
2017-05-07T22:17:45.580Z,14.45
2017-05-07T22:20:13.006Z,14.44
2017-05-07T22:22:40.441Z,14.42
2017-05-07T22:25:07.902Z,14.41
2017-05-07T22:27:35.334Z,14.40
2017-05-07T22:30:02.782Z,14.43
2017-05-07T22:32:30.239Z,14.49
2017-05-07T22:34:57.670Z,14.55
2017-05-07T22:37:25.102Z,14.62
2017-05-07T22:39:52.561Z,14.66
2017-05-07T22:42:20.000Z,14.70
2017-05-07T22:44:47.445Z,14.74
2017-05-07T22:47:14.911Z,14.77
2017-05-07T22:49:42.458Z,14.80
2017-05-07T22:52:09.894Z,14.81
2017-05-07T22:54:37.350Z,14.82
2017-05-07T22:57:04.790Z,14.85
2017-05-07T22:59:32.226Z,14.86
2017-05-07T23:01:59.702Z,14.87
2017-05-07T23:04:27.139Z,14.89
2017-05-07T23:06:54.573Z,14.90
2017-05-07T23:09:22.035Z,14.90
2017-05-07T23:11:49.479Z,14.91
2017-05-07T23:14:16.914Z,14.90
2017-05-07T23:16:44.361Z,14.90
2017-05-07T23:19:12.503Z,14.92
2017-05-07T23:21:39.938Z,14.91
2017-05-07T23:24:07.410Z,14.92
2017-05-07T23:26:34.847Z,14.91
2017-05-07T23:29:02.289Z,14.90
2017-05-07T23:31:29.754Z,14.90
2017-05-07T23:33:57.185Z,14.88
2017-05-07T23:36:24.626Z,14.87
2017-05-07T23:38:52.090Z,14.87
2017-05-07T23:41:19.536Z,14.86
2017-05-07T23:43:46.970Z,14.85
2017-05-07T23:46:14.422Z,14.84
2017-05-07T23:48:41.862Z,14.83
2017-05-07T23:51:09.303Z,14.81
2017-05-07T23:53:36.770Z,14.81
2017-05-07T23:56:04.207Z,14.80
2017-05-07T23:58:31.646Z,14.78
